sensor_id;sensor_type;location;lat;lon;timestamp;P1;durP1;ratioP1;P2;durP2;ratioP2
11197;SDS011;5655;48.744;9.162;2023-04-25T00:00:02;4.00;;;1.80;;
11197;SDS011;5655;48.744;9.162;2023-04-25T00:02:31;2.90;;;1.85;;
11197;SDS011;5655;48.744;9.162;2023-04-25T00:04:57;2.00;;;1.70;;
11197;SDS011;5655;48.744;9.162;2023-04-25T00:07:24;2.78;;;1.92;;
11197;SDS011;5655;48.744;9.162;2023-04-25T00:09:50;2.70;;;1.67;;
11197;SDS011;5655;48.744;9.162;2023-04-25T00:12:15;2.67;;;1.80;;
11197;SDS011;5655;48.744;9.162;2023-04-25T00:14:41;2.00;;;1.73;;
11197;SDS011;5655;48.744;9.162;2023-04-25T00:17:07;3.47;;;2.43;;
11197;SDS011;5655;48.744;9.162;2023-04-25T00:19:32;1.88;;;1.65;;
11197;SDS011;5655;48.744;9.162;2023-04-25T00:21:59;3.20;;;1.98;;
11197;SDS011;5655;48.744;9.162;2023-04-25T00:24:25;2.97;;;2.00;;
11197;SDS011;5655;48.744;9.162;2023-04-25T00:26:50;2.27;;;2.07;;
11197;SDS011;5655;48.744;9.162;2023-04-25T00:29:15;2.80;;;1.97;;
11197;SDS011;5655;48.744;9.162;2023-04-25T00:31:41;2.93;;;2.20;;
11197;SDS011;5655;48.744;9.162;2023-04-25T00:34:06;3.13;;;2.10;;
11197;SDS011;5655;48.744;9.162;2023-04-25T00:36:33;2.88;;;1.90;;
11197;SDS011;5655;48.744;9.162;2023-04-25T00:38:58;2.63;;;2.00;;
11197;SDS011;5655;48.744;9.162;2023-04-25T00:41:24;2.97;;;2.10;;
11197;SDS011;5655;48.744;9.162;2023-04-25T00:43:51;2.92;;;2.17;;
11197;SDS011;5655;48.744;9.162;2023-04-25T00:46:18;2.73;;;2.10;;
11197;SDS011;5655;48.744;9.162;2023-04-25T00:48:43;3.30;;;2.53;;
11197;SDS011;5655;48.744;9.162;2023-04-25T00:51:09;3.95;;;2.10;;
11197;SDS011;5655;48.744;9.162;2023-04-25T00:53:40;3.35;;;2.33;;
11197;SDS011;5655;48.744;9.162;2023-04-25T00:56:05;2.60;;;2.40;;
11197;SDS011;5655;48.744;9.162;2023-04-25T00:58:31;3.00;;;2.20;;
11197;SDS011;5655;48.744;9.162;2023-04-25T01:00:56;2.83;;;2.40;;
11197;SDS011;5655;48.744;9.162;2023-04-25T01:03:22;2.90;;;2.47;;
11197;SDS011;5655;48.744;9.162;2023-04-25T01:05:48;4.30;;;2.53;;
11197;SDS011;5655;48.744;9.162;2023-04-25T01:08:14;3.40;;;2.83;;
11197;SDS011;5655;48.744;9.162;2023-04-25T01:10:39;4.80;;;2.83;;
11197;SDS011;5655;48.744;9.162;2023-04-25T01:13:05;4.47;;;2.95;;
11197;SDS011;5655;48.744;9.162;2023-04-25T01:15:30;4.97;;;2.80;;
11197;SDS011;5655;48.744;9.162;2023-04-25T01:17:56;3.70;;;2.77;;
11197;SDS011;5655;48.744;9.162;2023-04-25T01:20:23;3.22;;;2.67;;
11197;SDS011;5655;48.744;9.162;2023-04-25T01:22:50;5.40;;;2.83;;
11197;SDS011;5655;48.744;9.162;2023-04-25T01:25:17;4.05;;;3.00;;
11197;SDS011;5655;48.744;9.162;2023-04-25T01:27:43;4.28;;;2.60;;
11197;SDS011;5655;48.744;9.162;2023-04-25T01:30:09;3.17;;;2.50;;
11197;SDS011;5655;48.744;9.162;2023-04-25T01:32:35;4.73;;;2.80;;
11197;SDS011;5655;48.744;9.162;2023-04-25T01:35:06;3.78;;;2.88;;
11197;SDS011;5655;48.744;9.162;2023-04-25T01:37:39;3.08;;;2.60;;
11197;SDS011;5655;48.744;9.162;2023-04-25T01:40:06;4.20;;;2.75;;
11197;SDS011;5655;48.744;9.162;2023-04-25T01:42:33;3.38;;;2.75;;
11197;SDS011;5655;48.744;9.162;2023-04-25T01:45:00;3.65;;;2.97;;
11197;SDS011;5655;48.744;9.162;2023-04-25T01:47:26;3.58;;;2.92;;
11197;SDS011;5655;48.744;9.162;2023-04-25T01:49:51;3.17;;;2.87;;
11197;SDS011;5655;48.744;9.162;2023-04-25T01:52:17;3.87;;;2.67;;
11197;SDS011;5655;48.744;9.162;2023-04-25T01:54:42;3.55;;;2.95;;
11197;SDS011;5655;48.744;9.162;2023-04-25T01:57:12;4.18;;;2.70;;
11197;SDS011;5655;48.744;9.162;2023-04-25T01:59:38;5.32;;;2.90;;
11197;SDS011;5655;48.744;9.162;2023-04-25T02:02:05;4.93;;;2.88;;
11197;SDS011;5655;48.744;9.162;2023-04-25T02:04:31;4.47;;;3.10;;
11197;SDS011;5655;48.744;9.162;2023-04-25T02:06:57;3.30;;;3.00;;
11197;SDS011;5655;48.744;9.162;2023-04-25T02:09:23;3.72;;;2.88;;
11197;SDS011;5655;48.744;9.162;2023-04-25T02:11:48;4.53;;;3.13;;
11197;SDS011;5655;48.744;9.162;2023-04-25T02:14:14;3.10;;;2.63;;
11197;SDS011;5655;48.744;9.162;2023-04-25T02:16:39;6.80;;;3.00;;
11197;SDS011;5655;48.744;9.162;2023-04-25T02:19:05;4.60;;;2.43;;
11197;SDS011;5655;48.744;9.162;2023-04-25T02:21:30;2.90;;;2.20;;
11197;SDS011;5655;48.744;9.162;2023-04-25T02:23:56;5.03;;;2.50;;
11197;SDS011;5655;48.744;9.162;2023-04-25T02:26:22;2.88;;;2.30;;
11197;SDS011;5655;48.744;9.162;2023-04-25T02:28:49;5.07;;;2.28;;
11197;SDS011;5655;48.744;9.162;2023-04-25T02:31:15;2.22;;;2.03;;
11197;SDS011;5655;48.744;9.162;2023-04-25T02:33:40;3.50;;;2.15;;
11197;SDS011;5655;48.744;9.162;2023-04-25T02:36:06;2.40;;;1.80;;
11197;SDS011;5655;48.744;9.162;2023-04-25T02:38:31;4.43;;;2.20;;
11197;SDS011;5655;48.744;9.162;2023-04-25T02:40:56;3.27;;;1.90;;
11197;SDS011;5655;48.744;9.162;2023-04-25T02:43:22;2.85;;;2.10;;
11197;SDS011;5655;48.744;9.162;2023-04-25T02:45:47;3.28;;;2.20;;
11197;SDS011;5655;48.744;9.162;2023-04-25T02:48:12;2.33;;;1.93;;
11197;SDS011;5655;48.744;9.162;2023-04-25T02:50:38;2.60;;;1.87;;
11197;SDS011;5655;48.744;9.162;2023-04-25T02:53:03;3.03;;;1.90;;
11197;SDS011;5655;48.744;9.162;2023-04-25T02:55:28;2.83;;;1.83;;
11197;SDS011;5655;48.744;9.162;2023-04-25T02:57:53;2.43;;;1.90;;
11197;SDS011;5655;48.744;9.162;2023-04-25T03:00:20;3.25;;;2.10;;
11197;SDS011;5655;48.744;9.162;2023-04-25T03:02:46;3.17;;;1.98;;
11197;SDS011;5655;48.744;9.162;2023-04-25T03:05:12;2.70;;;2.10;;
11197;SDS011;5655;48.744;9.162;2023-04-25T03:07:37;3.27;;;1.93;;
11197;SDS011;5655;48.744;9.162;2023-04-25T03:10:04;2.27;;;2.03;;
11197;SDS011;5655;48.744;9.162;2023-04-25T03:12:31;3.30;;;2.20;;
11197;SDS011;5655;48.744;9.162;2023-04-25T03:14:56;2.50;;;2.00;;
11197;SDS011;5655;48.744;9.162;2023-04-25T03:17:21;3.28;;;2.38;;
11197;SDS011;5655;48.744;9.162;2023-04-25T03:19:47;3.20;;;1.97;;
11197;SDS011;5655;48.744;9.162;2023-04-25T03:22:12;5.43;;;2.53;;
11197;SDS011;5655;48.744;9.162;2023-04-25T03:24:38;32.07;;;8.17;;
11197;SDS011;5655;48.744;9.162;2023-04-25T03:27:03;11.02;;;4.28;;
11197;SDS011;5655;48.744;9.162;2023-04-25T03:29:29;3.83;;;2.20;;
11197;SDS011;5655;48.744;9.162;2023-04-25T03:31:54;4.03;;;2.07;;
11197;SDS011;5655;48.744;9.162;2023-04-25T03:34:19;2.40;;;1.90;;
11197;SDS011;5655;48.744;9.162;2023-04-25T03:36:46;2.55;;;2.20;;
11197;SDS011;5655;48.744;9.162;2023-04-25T03:39:11;2.73;;;1.90;;
11197;SDS011;5655;48.744;9.162;2023-04-25T03:41:37;2.67;;;2.10;;
11197;SDS011;5655;48.744;9.162;2023-04-25T03:44:02;2.90;;;2.33;;
11197;SDS011;5655;48.744;9.162;2023-04-25T03:46:27;2.90;;;2.20;;
11197;SDS011;5655;48.744;9.162;2023-04-25T03:48:53;4.03;;;2.57;;
11197;SDS011;5655;48.744;9.162;2023-04-25T03:51:18;3.42;;;2.33;;
11197;SDS011;5655;48.744;9.162;2023-04-25T03:53:43;4.30;;;2.40;;
11197;SDS011;5655;48.744;9.162;2023-04-25T03:56:09;3.50;;;2.10;;
11197;SDS011;5655;48.744;9.162;2023-04-25T03:58:34;4.67;;;2.70;;
11197;SDS011;5655;48.744;9.162;2023-04-25T04:00:59;6.00;;;2.60;;
11197;SDS011;5655;48.744;9.162;2023-04-25T04:03:25;5.20;;;2.50;;
11197;SDS011;5655;48.744;9.162;2023-04-25T04:05:51;4.40;;;2.70;;
11197;SDS011;5655;48.744;9.162;2023-04-25T04:08:16;4.80;;;2.50;;
11197;SDS011;5655;48.744;9.162;2023-04-25T04:10:41;5.53;;;3.00;;
11197;SDS011;5655;48.744;9.162;2023-04-25T04:13:06;3.73;;;2.70;;
11197;SDS011;5655;48.744;9.162;2023-04-25T04:15:32;3.23;;;2.60;;
11197;SDS011;5655;48.744;9.162;2023-04-25T04:17:57;5.97;;;2.80;;
11197;SDS011;5655;48.744;9.162;2023-04-25T04:20:27;5.05;;;2.78;;
11197;SDS011;5655;48.744;9.162;2023-04-25T04:22:52;10.55;;;3.00;;
11197;SDS011;5655;48.744;9.162;2023-04-25T04:25:18;3.73;;;2.80;;
11197;SDS011;5655;48.744;9.162;2023-04-25T04:27:43;5.67;;;3.07;;
11197;SDS011;5655;48.744;9.162;2023-04-25T04:30:09;3.97;;;2.50;;
11197;SDS011;5655;48.744;9.162;2023-04-25T04:32:35;4.80;;;2.97;;
11197;SDS011;5655;48.744;9.162;2023-04-25T04:35:02;4.27;;;3.20;;
11197;SDS011;5655;48.744;9.162;2023-04-25T04:37:29;5.07;;;3.00;;
11197;SDS011;5655;48.744;9.162;2023-04-25T04:39:54;3.30;;;2.90;;
11197;SDS011;5655;48.744;9.162;2023-04-25T04:42:20;4.93;;;3.13;;
11197;SDS011;5655;48.744;9.162;2023-04-25T04:44:46;4.75;;;3.10;;
11197;SDS011;5655;48.744;9.162;2023-04-25T04:47:11;6.13;;;3.23;;
11197;SDS011;5655;48.744;9.162;2023-04-25T04:49:38;5.65;;;3.40;;
11197;SDS011;5655;48.744;9.162;2023-04-25T04:52:04;5.13;;;3.22;;
11197;SDS011;5655;48.744;9.162;2023-04-25T04:54:30;5.47;;;3.53;;
11197;SDS011;5655;48.744;9.162;2023-04-25T04:56:55;5.57;;;3.20;;
11197;SDS011;5655;48.744;9.162;2023-04-25T04:59:21;5.22;;;3.25;;
11197;SDS011;5655;48.744;9.162;2023-04-25T05:01:46;5.00;;;3.50;;
11197;SDS011;5655;48.744;9.162;2023-04-25T05:04:12;4.67;;;3.30;;
11197;SDS011;5655;48.744;9.162;2023-04-25T05:06:37;5.23;;;3.60;;
11197;SDS011;5655;48.744;9.162;2023-04-25T05:09:02;5.03;;;3.40;;
11197;SDS011;5655;48.744;9.162;2023-04-25T05:11:28;4.97;;;3.17;;
11197;SDS011;5655;48.744;9.162;2023-04-25T05:13:54;4.87;;;3.40;;
11197;SDS011;5655;48.744;9.162;2023-04-25T05:16:19;4.93;;;3.53;;
11197;SDS011;5655;48.744;9.162;2023-04-25T05:18:46;4.05;;;3.58;;
11197;SDS011;5655;48.744;9.162;2023-04-25T05:21:11;6.18;;;3.67;;
11197;SDS011;5655;48.744;9.162;2023-04-25T05:23:37;6.90;;;3.20;;
11197;SDS011;5655;48.744;9.162;2023-04-25T05:26:02;6.67;;;3.93;;
11197;SDS011;5655;48.744;9.162;2023-04-25T05:28:28;6.53;;;3.50;;
11197;SDS011;5655;48.744;9.162;2023-04-25T05:30:53;5.35;;;3.67;;
11197;SDS011;5655;48.744;9.162;2023-04-25T05:33:19;6.20;;;3.90;;
11197;SDS011;5655;48.744;9.162;2023-04-25T05:35:44;6.10;;;3.80;;
11197;SDS011;5655;48.744;9.162;2023-04-25T05:38:10;4.80;;;3.70;;
11197;SDS011;5655;48.744;9.162;2023-04-25T05:40:35;6.33;;;3.73;;
11197;SDS011;5655;48.744;9.162;2023-04-25T05:43:01;7.60;;;3.90;;
11197;SDS011;5655;48.744;9.162;2023-04-25T05:45:26;5.97;;;3.80;;
11197;SDS011;5655;48.744;9.162;2023-04-25T05:47:51;4.33;;;3.50;;
11197;SDS011;5655;48.744;9.162;2023-04-25T05:50:17;4.20;;;3.60;;
11197;SDS011;5655;48.744;9.162;2023-04-25T05:52:42;7.17;;;3.67;;
11197;SDS011;5655;48.744;9.162;2023-04-25T05:55:08;4.50;;;3.80;;
11197;SDS011;5655;48.744;9.162;2023-04-25T05:57:33;5.13;;;3.85;;
11197;SDS011;5655;48.744;9.162;2023-04-25T05:59:59;5.20;;;3.80;;
11197;SDS011;5655;48.744;9.162;2023-04-25T06:02:24;6.13;;;3.80;;
11197;SDS011;5655;48.744;9.162;2023-04-25T06:04:50;4.53;;;3.37;;
11197;SDS011;5655;48.744;9.162;2023-04-25T06:07:16;5.10;;;3.40;;
11197;SDS011;5655;48.744;9.162;2023-04-25T06:09:42;5.80;;;3.90;;
11197;SDS011;5655;48.744;9.162;2023-04-25T06:12:08;5.50;;;3.50;;
11197;SDS011;5655;48.744;9.162;2023-04-25T06:14:34;3.97;;;3.40;;
11197;SDS011;5655;48.744;9.162;2023-04-25T06:16:59;6.10;;;3.83;;
11197;SDS011;5655;48.744;9.162;2023-04-25T06:19:31;4.18;;;3.30;;
11197;SDS011;5655;48.744;9.162;2023-04-25T06:21:57;3.83;;;3.40;;
11197;SDS011;5655;48.744;9.162;2023-04-25T06:24:22;3.97;;;3.43;;
11197;SDS011;5655;48.744;9.162;2023-04-25T06:26:47;4.93;;;3.40;;
11197;SDS011;5655;48.744;9.162;2023-04-25T06:29:13;4.27;;;3.47;;
11197;SDS011;5655;48.744;9.162;2023-04-25T06:31:38;3.93;;;3.20;;
11197;SDS011;5655;48.744;9.162;2023-04-25T06:34:03;4.27;;;3.50;;
11197;SDS011;5655;48.744;9.162;2023-04-25T06:36:28;5.10;;;3.60;;
11197;SDS011;5655;48.744;9.162;2023-04-25T06:38:55;5.97;;;3.90;;
11197;SDS011;5655;48.744;9.162;2023-04-25T06:41:20;5.20;;;3.53;;
11197;SDS011;5655;48.744;9.162;2023-04-25T06:43:46;5.17;;;3.90;;
11197;SDS011;5655;48.744;9.162;2023-04-25T06:46:11;4.17;;;3.73;;
11197;SDS011;5655;48.744;9.162;2023-04-25T06:48:36;6.28;;;3.80;;
11197;SDS011;5655;48.744;9.162;2023-04-25T06:51:02;5.17;;;4.00;;
11197;SDS011;5655;48.744;9.162;2023-04-25T06:53:27;5.77;;;4.40;;
11197;SDS011;5655;48.744;9.162;2023-04-25T06:55:53;6.47;;;5.15;;
11197;SDS011;5655;48.744;9.162;2023-04-25T06:58:18;6.00;;;5.10;;
11197;SDS011;5655;48.744;9.162;2023-04-25T07:00:44;6.13;;;5.17;;
11197;SDS011;5655;48.744;9.162;2023-04-25T07:03:09;7.67;;;4.83;;
11197;SDS011;5655;48.744;9.162;2023-04-25T07:05:34;8.10;;;4.80;;
11197;SDS011;5655;48.744;9.162;2023-04-25T07:08:00;7.07;;;4.72;;
11197;SDS011;5655;48.744;9.162;2023-04-25T07:10:26;6.57;;;5.30;;
11197;SDS011;5655;48.744;9.162;2023-04-25T07:12:51;6.83;;;5.50;;
11197;SDS011;5655;48.744;9.162;2023-04-25T07:15:16;6.43;;;5.30;;
11197;SDS011;5655;48.744;9.162;2023-04-25T07:17:42;6.37;;;5.17;;
11197;SDS011;5655;48.744;9.162;2023-04-25T07:20:08;6.67;;;5.37;;
11197;SDS011;5655;48.744;9.162;2023-04-25T07:22:34;7.18;;;5.57;;
11197;SDS011;5655;48.744;9.162;2023-04-25T07:25:00;5.97;;;5.10;;
11197;SDS011;5655;48.744;9.162;2023-04-25T07:27:25;7.10;;;5.73;;
11197;SDS011;5655;48.744;9.162;2023-04-25T07:29:50;7.82;;;5.88;;
11197;SDS011;5655;48.744;9.162;2023-04-25T07:32:15;10.77;;;6.32;;
11197;SDS011;5655;48.744;9.162;2023-04-25T07:34:41;7.37;;;6.60;;
11197;SDS011;5655;48.744;9.162;2023-04-25T07:37:06;6.70;;;5.70;;
11197;SDS011;5655;48.744;9.162;2023-04-25T07:39:32;8.03;;;6.30;;
11197;SDS011;5655;48.744;9.162;2023-04-25T07:41:57;7.07;;;6.33;;
11197;SDS011;5655;48.744;9.162;2023-04-25T07:44:26;6.93;;;6.07;;
11197;SDS011;5655;48.744;9.162;2023-04-25T07:46:52;9.70;;;6.40;;
11197;SDS011;5655;48.744;9.162;2023-04-25T07:49:17;9.30;;;6.80;;
11197;SDS011;5655;48.744;9.162;2023-04-25T07:51:42;7.83;;;6.20;;
11197;SDS011;5655;48.744;9.162;2023-04-25T07:54:13;7.38;;;5.75;;
11197;SDS011;5655;48.744;9.162;2023-04-25T07:56:39;6.68;;;5.45;;
11197;SDS011;5655;48.744;9.162;2023-04-25T07:59:05;6.57;;;5.60;;
11197;SDS011;5655;48.744;9.162;2023-04-25T08:01:30;9.00;;;6.13;;
11197;SDS011;5655;48.744;9.162;2023-04-25T08:03:56;7.18;;;6.25;;
11197;SDS011;5655;48.744;9.162;2023-04-25T08:06:21;6.80;;;6.10;;
11197;SDS011;5655;48.744;9.162;2023-04-25T08:08:46;7.07;;;6.20;;
11197;SDS011;5655;48.744;9.162;2023-04-25T08:11:11;9.07;;;6.53;;
11197;SDS011;5655;48.744;9.162;2023-04-25T08:13:37;8.50;;;6.20;;
11197;SDS011;5655;48.744;9.162;2023-04-25T08:16:02;9.03;;;6.63;;
11197;SDS011;5655;48.744;9.162;2023-04-25T08:18:28;9.40;;;7.07;;
11197;SDS011;5655;48.744;9.162;2023-04-25T08:20:53;9.02;;;6.47;;
11197;SDS011;5655;48.744;9.162;2023-04-25T08:23:18;7.30;;;6.30;;
11197;SDS011;5655;48.744;9.162;2023-04-25T08:25:43;8.10;;;6.30;;
11197;SDS011;5655;48.744;9.162;2023-04-25T08:28:09;7.57;;;6.00;;
11197;SDS011;5655;48.744;9.162;2023-04-25T08:30:34;7.13;;;6.27;;
11197;SDS011;5655;48.744;9.162;2023-04-25T08:32:59;7.80;;;6.18;;
11197;SDS011;5655;48.744;9.162;2023-04-25T08:35:25;8.17;;;6.63;;
11197;SDS011;5655;48.744;9.162;2023-04-25T08:37:50;9.87;;;7.57;;
11197;SDS011;5655;48.744;9.162;2023-04-25T08:40:16;8.93;;;7.23;;
11197;SDS011;5655;48.744;9.162;2023-04-25T08:42:41;9.68;;;7.47;;
11197;SDS011;5655;48.744;9.162;2023-04-25T08:45:08;8.73;;;7.30;;
11197;SDS011;5655;48.744;9.162;2023-04-25T08:47:34;8.63;;;6.90;;
11197;SDS011;5655;48.744;9.162;2023-04-25T08:50:00;8.43;;;6.53;;
11197;SDS011;5655;48.744;9.162;2023-04-25T08:52:28;8.05;;;6.68;;
11197;SDS011;5655;48.744;9.162;2023-04-25T08:54:57;8.02;;;6.72;;
11197;SDS011;5655;48.744;9.162;2023-04-25T08:57:25;8.93;;;6.70;;
11197;SDS011;5655;48.744;9.162;2023-04-25T08:59:51;10.43;;;8.10;;
11197;SDS011;5655;48.744;9.162;2023-04-25T09:02:17;9.33;;;7.80;;
11197;SDS011;5655;48.744;9.162;2023-04-25T09:04:45;10.10;;;8.32;;
11197;SDS011;5655;48.744;9.162;2023-04-25T09:07:11;9.77;;;7.70;;
11197;SDS011;5655;48.744;9.162;2023-04-25T09:09:37;9.30;;;7.72;;
11197;SDS011;5655;48.744;9.162;2023-04-25T09:12:02;9.20;;;7.30;;
11197;SDS011;5655;48.744;9.162;2023-04-25T09:14:28;8.50;;;7.50;;
11197;SDS011;5655;48.744;9.162;2023-04-25T09:19:24;12.32;;;7.38;;
11197;SDS011;5655;48.744;9.162;2023-04-25T09:21:58;8.38;;;7.28;;
11197;SDS011;5655;48.744;9.162;2023-04-25T09:27:10;9.57;;;7.80;;
11197;SDS011;5655;48.744;9.162;2023-04-25T09:29:37;11.13;;;7.60;;
11197;SDS011;5655;48.744;9.162;2023-04-25T09:32:36;10.27;;;7.95;;
11197;SDS011;5655;48.744;9.162;2023-04-25T09:34:55;10.68;;;8.02;;
11197;SDS011;5655;48.744;9.162;2023-04-25T09:39:49;8.23;;;7.40;;
11197;SDS011;5655;48.744;9.162;2023-04-25T09:42:17;6.87;;;5.90;;
11197;SDS011;5655;48.744;9.162;2023-04-25T09:44:46;7.32;;;5.40;;
11197;SDS011;5655;48.744;9.162;2023-04-25T09:47:13;6.45;;;5.85;;
11197;SDS011;5655;48.744;9.162;2023-04-25T09:49:40;5.38;;;4.70;;
11197;SDS011;5655;48.744;9.162;2023-04-25T09:52:13;4.90;;;4.40;;
11197;SDS011;5655;48.744;9.162;2023-04-25T09:54:40;5.00;;;4.45;;
11197;SDS011;5655;48.744;9.162;2023-04-25T09:59:39;7.40;;;5.55;;
11197;SDS011;5655;48.744;9.162;2023-04-25T10:02:18;6.45;;;5.65;;
11197;SDS011;5655;48.744;9.162;2023-04-25T10:04:47;7.18;;;5.55;;
11197;SDS011;5655;48.744;9.162;2023-04-25T10:07:13;5.30;;;4.55;;
11197;SDS011;5655;48.744;9.162;2023-04-25T10:09:39;4.28;;;3.47;;
11197;SDS011;5655;48.744;9.162;2023-04-25T10:12:06;3.47;;;3.13;;
11197;SDS011;5655;48.744;9.162;2023-04-25T10:14:33;3.13;;;2.80;;
11197;SDS011;5655;48.744;9.162;2023-04-25T10:17:00;2.92;;;2.40;;
11197;SDS011;5655;48.744;9.162;2023-04-25T10:19:26;2.85;;;2.10;;
11197;SDS011;5655;48.744;9.162;2023-04-25T10:22:03;3.33;;;2.45;;
11197;SDS011;5655;48.744;9.162;2023-04-25T10:24:47;2.50;;;1.98;;
11197;SDS011;5655;48.744;9.162;2023-04-25T10:27:12;2.50;;;2.00;;
11197;SDS011;5655;48.744;9.162;2023-04-25T10:29:38;2.47;;;2.00;;
11197;SDS011;5655;48.744;9.162;2023-04-25T10:32:03;2.07;;;1.87;;
11197;SDS011;5655;48.744;9.162;2023-04-25T10:34:39;1.40;;;1.30;;
11197;SDS011;5655;48.744;9.162;2023-04-25T10:37:08;1.20;;;1.10;;
11197;SDS011;5655;48.744;9.162;2023-04-25T10:39:35;1.50;;;1.30;;
11197;SDS011;5655;48.744;9.162;2023-04-25T10:42:01;1.20;;;1.10;;
11197;SDS011;5655;48.744;9.162;2023-04-25T10:44:30;1.20;;;1.10;;
11197;SDS011;5655;48.744;9.162;2023-04-25T10:46:57;1.80;;;1.38;;
11197;SDS011;5655;48.744;9.162;2023-04-25T10:54:42;2.40;;;1.70;;
11197;SDS011;5655;48.744;9.162;2023-04-25T10:59:57;3.05;;;1.90;;
11197;SDS011;5655;48.744;9.162;2023-04-25T11:02:38;2.85;;;2.20;;
11197;SDS011;5655;48.744;9.162;2023-04-25T11:05:09;2.95;;;2.65;;
11197;SDS011;5655;48.744;9.162;2023-04-25T11:07:42;4.30;;;3.90;;
11197;SDS011;5655;48.744;9.162;2023-04-25T11:10:14;5.50;;;4.22;;
11197;SDS011;5655;48.744;9.162;2023-04-25T11:12:39;6.13;;;4.90;;
11197;SDS011;5655;48.744;9.162;2023-04-25T11:15:05;5.78;;;4.93;;
11197;SDS011;5655;48.744;9.162;2023-04-25T11:17:32;5.00;;;4.50;;
11197;SDS011;5655;48.744;9.162;2023-04-25T11:19:58;4.30;;;3.90;;
11197;SDS011;5655;48.744;9.162;2023-04-25T11:22:23;4.75;;;3.30;;
11197;SDS011;5655;48.744;9.162;2023-04-25T11:24:49;3.97;;;2.80;;
11197;SDS011;5655;48.744;9.162;2023-04-25T11:27:15;4.55;;;3.80;;
11197;SDS011;5655;48.744;9.162;2023-04-25T11:29:41;4.13;;;3.45;;
11197;SDS011;5655;48.744;9.162;2023-04-25T11:32:06;3.93;;;3.57;;
11197;SDS011;5655;48.744;9.162;2023-04-25T11:34:32;3.45;;;2.90;;
11197;SDS011;5655;48.744;9.162;2023-04-25T11:36:58;3.10;;;2.80;;
11197;SDS011;5655;48.744;9.162;2023-04-25T11:39:27;3.58;;;3.13;;
11197;SDS011;5655;48.744;9.162;2023-04-25T11:41:53;4.30;;;3.90;;
11197;SDS011;5655;48.744;9.162;2023-04-25T11:44:20;3.88;;;3.45;;
11197;SDS011;5655;48.744;9.162;2023-04-25T11:46:45;4.50;;;3.50;;
11197;SDS011;5655;48.744;9.162;2023-04-25T11:49:11;3.25;;;2.95;;
11197;SDS011;5655;48.744;9.162;2023-04-25T11:51:38;3.60;;;3.00;;
11197;SDS011;5655;48.744;9.162;2023-04-25T11:54:04;4.25;;;3.30;;
11197;SDS011;5655;48.744;9.162;2023-04-25T11:56:30;3.30;;;3.00;;
11197;SDS011;5655;48.744;9.162;2023-04-25T11:58:57;5.03;;;3.67;;
11197;SDS011;5655;48.744;9.162;2023-04-25T12:01:33;3.97;;;3.50;;
11197;SDS011;5655;48.744;9.162;2023-04-25T12:06:37;5.55;;;4.88;;
11197;SDS011;5655;48.744;9.162;2023-04-25T12:09:06;6.00;;;5.00;;
11197;SDS011;5655;48.744;9.162;2023-04-25T12:11:40;5.32;;;4.75;;
11197;SDS011;5655;48.744;9.162;2023-04-25T12:14:07;6.50;;;5.18;;
11197;SDS011;5655;48.744;9.162;2023-04-25T12:16:39;5.80;;;5.20;;
11197;SDS011;5655;48.744;9.162;2023-04-25T12:19:08;7.35;;;5.30;;
11197;SDS011;5655;48.744;9.162;2023-04-25T12:21:34;6.47;;;4.70;;
11197;SDS011;5655;48.744;9.162;2023-04-25T12:24:13;6.43;;;5.03;;
11197;SDS011;5655;48.744;9.162;2023-04-25T12:26:47;4.78;;;4.38;;
11197;SDS011;5655;48.744;9.162;2023-04-25T12:29:17;6.93;;;5.18;;
11197;SDS011;5655;48.744;9.162;2023-04-25T12:31:48;6.68;;;5.15;;
11197;SDS011;5655;48.744;9.162;2023-04-25T12:34:14;8.67;;;5.90;;
11197;SDS011;5655;48.744;9.162;2023-04-25T12:36:40;8.55;;;7.10;;
11197;SDS011;5655;48.744;9.162;2023-04-25T12:39:06;7.33;;;6.63;;
11197;SDS011;5655;48.744;9.162;2023-04-25T12:41:31;8.40;;;6.53;;
11197;SDS011;5655;48.744;9.162;2023-04-25T12:43:57;9.17;;;7.30;;
11197;SDS011;5655;48.744;9.162;2023-04-25T12:46:22;8.03;;;7.23;;
11197;SDS011;5655;48.744;9.162;2023-04-25T12:48:48;9.32;;;6.38;;
11197;SDS011;5655;48.744;9.162;2023-04-25T12:51:13;8.20;;;6.97;;
11197;SDS011;5655;48.744;9.162;2023-04-25T12:53:39;7.53;;;6.07;;
11197;SDS011;5655;48.744;9.162;2023-04-25T12:56:05;8.13;;;6.38;;
11197;SDS011;5655;48.744;9.162;2023-04-25T12:58:32;8.68;;;6.32;;
11197;SDS011;5655;48.744;9.162;2023-04-25T13:00:58;9.52;;;6.63;;
11197;SDS011;5655;48.744;9.162;2023-04-25T13:03:23;8.77;;;7.10;;
11197;SDS011;5655;48.744;9.162;2023-04-25T13:05:49;8.80;;;6.38;;
11197;SDS011;5655;48.744;9.162;2023-04-25T13:08:17;8.57;;;6.55;;
11197;SDS011;5655;48.744;9.162;2023-04-25T13:10:42;9.27;;;6.70;;
11197;SDS011;5655;48.744;9.162;2023-04-25T13:13:08;7.15;;;6.32;;
11197;SDS011;5655;48.744;9.162;2023-04-25T13:15:33;10.73;;;6.40;;
11197;SDS011;5655;48.744;9.162;2023-04-25T13:17:59;7.83;;;6.00;;
11197;SDS011;5655;48.744;9.162;2023-04-25T13:20:24;8.17;;;6.37;;
11197;SDS011;5655;48.744;9.162;2023-04-25T13:22:50;9.13;;;6.10;;
11197;SDS011;5655;48.744;9.162;2023-04-25T13:25:15;9.07;;;6.33;;
11197;SDS011;5655;48.744;9.162;2023-04-25T13:27:41;7.35;;;5.90;;
11197;SDS011;5655;48.744;9.162;2023-04-25T13:30:09;7.70;;;6.47;;
11197;SDS011;5655;48.744;9.162;2023-04-25T13:32:34;7.50;;;5.95;;
11197;SDS011;5655;48.744;9.162;2023-04-25T13:35:01;7.68;;;5.95;;
11197;SDS011;5655;48.744;9.162;2023-04-25T13:37:27;8.30;;;6.23;;
11197;SDS011;5655;48.744;9.162;2023-04-25T13:39:54;8.18;;;6.90;;
11197;SDS011;5655;48.744;9.162;2023-04-25T13:42:20;8.73;;;7.13;;
11197;SDS011;5655;48.744;9.162;2023-04-25T13:44:46;9.20;;;7.13;;
11197;SDS011;5655;48.744;9.162;2023-04-25T13:47:11;10.63;;;7.23;;
11197;SDS011;5655;48.744;9.162;2023-04-25T13:49:37;10.07;;;7.00;;
11197;SDS011;5655;48.744;9.162;2023-04-25T13:52:02;9.43;;;7.68;;
11197;SDS011;5655;48.744;9.162;2023-04-25T13:54:27;10.87;;;8.53;;
11197;SDS011;5655;48.744;9.162;2023-04-25T13:56:52;11.07;;;8.60;;
11197;SDS011;5655;48.744;9.162;2023-04-25T13:59:23;11.20;;;8.70;;
11197;SDS011;5655;48.744;9.162;2023-04-25T14:01:48;12.23;;;9.43;;
11197;SDS011;5655;48.744;9.162;2023-04-25T14:04:14;10.40;;;8.37;;
11197;SDS011;5655;48.744;9.162;2023-04-25T14:06:39;9.82;;;8.43;;
11197;SDS011;5655;48.744;9.162;2023-04-25T14:09:04;9.57;;;8.57;;
11197;SDS011;5655;48.744;9.162;2023-04-25T14:11:31;8.70;;;7.63;;
11197;SDS011;5655;48.744;9.162;2023-04-25T14:13:56;10.30;;;7.75;;
11197;SDS011;5655;48.744;9.162;2023-04-25T14:16:22;9.97;;;8.20;;
11197;SDS011;5655;48.744;9.162;2023-04-25T14:18:48;8.53;;;7.47;;
11197;SDS011;5655;48.744;9.162;2023-04-25T14:21:13;7.78;;;6.97;;
11197;SDS011;5655;48.744;9.162;2023-04-25T14:23:38;7.38;;;6.32;;
11197;SDS011;5655;48.744;9.162;2023-04-25T14:26:04;10.10;;;7.23;;
11197;SDS011;5655;48.744;9.162;2023-04-25T14:28:30;9.20;;;7.65;;
11197;SDS011;5655;48.744;9.162;2023-04-25T14:30:55;9.70;;;8.07;;
11197;SDS011;5655;48.744;9.162;2023-04-25T14:33:21;10.50;;;7.10;;
11197;SDS011;5655;48.744;9.162;2023-04-25T14:35:47;10.02;;;7.20;;
11197;SDS011;5655;48.744;9.162;2023-04-25T14:38:12;7.23;;;5.80;;
11197;SDS011;5655;48.744;9.162;2023-04-25T14:40:37;6.47;;;5.50;;
11197;SDS011;5655;48.744;9.162;2023-04-25T14:43:03;7.40;;;5.57;;
11197;SDS011;5655;48.744;9.162;2023-04-25T14:45:28;7.43;;;5.97;;
11197;SDS011;5655;48.744;9.162;2023-04-25T14:47:53;6.50;;;5.80;;
11197;SDS011;5655;48.744;9.162;2023-04-25T14:50:19;5.27;;;4.60;;
11197;SDS011;5655;48.744;9.162;2023-04-25T14:52:44;5.83;;;5.13;;
11197;SDS011;5655;48.744;9.162;2023-04-25T14:55:10;6.38;;;4.97;;
11197;SDS011;5655;48.744;9.162;2023-04-25T14:57:36;6.43;;;4.50;;
11197;SDS011;5655;48.744;9.162;2023-04-25T15:00:02;4.80;;;4.37;;
11197;SDS011;5655;48.744;9.162;2023-04-25T15:02:30;6.70;;;4.53;;
11197;SDS011;5655;48.744;9.162;2023-04-25T15:04:56;5.40;;;4.37;;
11197;SDS011;5655;48.744;9.162;2023-04-25T15:07:21;5.13;;;4.22;;
11197;SDS011;5655;48.744;9.162;2023-04-25T15:09:47;4.97;;;4.20;;
11197;SDS011;5655;48.744;9.162;2023-04-25T15:12:13;4.55;;;4.00;;
11197;SDS011;5655;48.744;9.162;2023-04-25T15:14:38;5.93;;;4.30;;